This is the latest recevied weather packets stored in our database for station/object KF0QIL-10. If no packets are shown the sender has not sent any weather packets the latest 10 day(s).
| Time | Temp. | Humidity | Pressure | Rain* | Wind** | Luminosity | Snow |
|---|---|---|---|---|---|---|---|
| 1788147087 | 77° F | 77% | 761 mmHg | 0 in | - | - | - |
| 1788143487 | 79° F | 73% | 760.8 mmHg | 0 in | - | - | - |
| 1788141687 | 80° F | 72% | 760.6 mmHg | 0 in | - | - | - |
| 1788139887 | 82° F | 69% | 760.2 mmHg | 0 in | - | - | - |
| 1788136287 | 86° F | 61% | 760.1 mmHg | 0 in | - | - | - |
| 1788134487 | 89° F | 56% | 760.1 mmHg | 0 in | - | - | - |
| 1788132687 | 93° F | 47% | 760.1 mmHg | 0 in | - | - | - |
| 1788129087 | 97° F | 40% | 760.1 mmHg | 0 in | - | - | - |
| 1788127287 | 96° F | 40% | 760.2 mmHg | 0 in | - | - | - |
| 1788125487 | 96° F | 41% | 760.5 mmHg | 0 in | - | - | - |
| 1788121887 | 96° F | 41% | 760.7 mmHg | 0 in | - | - | - |
| 1788120087 | 95° F | 43% | 760.9 mmHg | 0 in | - | - | - |
| 1788118287 | 93° F | 45% | 761.2 mmHg | 0 in | - | - | - |
| 1788114687 | 92° F | 46% | 761.6 mmHg | 0 in | - | - | - |
| 1788112887 | 91° F | 48% | 761.8 mmHg | 0 in | - | - | - |
| 1788111087 | 90° F | 47% | 761.8 mmHg | 0 in | - | - | - |
| 1788107487 | 87° F | 50% | 762.2 mmHg | 0 in | - | - | - |
| 1788105687 | 85° F | 51% | 762.3 mmHg | 0 in | - | - | - |
| 1788103887 | 84° F | 53% | 762.3 mmHg | 0 in | - | - | - |
| 1788100287 | 79° F | 59% | 762.1 mmHg | 0 in | - | - | - |
| 1788098487 | 78° F | 63% | 762 mmHg | 0 in | - | - | - |
| 1788096687 | 75° F | 66% | 762 mmHg | 0 in | - | - | - |
| 1788093087 | 68° F | 79% | 762.2 mmHg | 0 in | - | - | - |
| 1788091287 | 65° F | 83% | 762.3 mmHg | 0 in | - | - | - |
| 1788089487 | 64° F | 87% | 762.4 mmHg | 0 in | - | - | - |
* Rain latest hour (hover to see other rain measurements)
** Current wind speed in m/s (hover to see current wind gust speed)